createdAt,value
2022-11-16T04:51:15.545Z,29.58
2022-11-16T04:54:19.416Z,31.10
2022-11-16T04:57:22.078Z,31.60
2022-11-16T05:00:25.568Z,30.07
2022-11-16T05:03:28.021Z,30.20
2022-11-16T05:06:31.085Z,29.33
2022-11-16T05:09:33.746Z,31.73
2022-11-16T05:12:36.697Z,28.20
2022-11-16T05:15:40.338Z,28.65
2022-11-16T05:18:43.252Z,29.90
2022-11-16T05:21:47.421Z,30.35
2022-11-16T05:24:50.289Z,31.53
2022-11-16T05:27:53.798Z,29.02
2022-11-16T05:30:56.469Z,27.05
2022-11-16T05:33:58.945Z,29.37
2022-11-16T05:37:02.341Z,26.52
2022-11-16T05:40:05.576Z,28.30
2022-11-16T05:43:09.133Z,28.40
2022-11-16T05:46:12.197Z,27.10
2022-11-16T05:49:16.125Z,27.60
2022-11-16T05:52:19.359Z,29.35
2022-11-16T05:55:21.965Z,31.13
2022-11-16T05:58:24.344Z,27.50
2022-11-16T06:01:27.053Z,29.80
2022-11-16T06:04:29.829Z,28.23
2022-11-16T06:07:34.156Z,29.08
2022-11-16T06:10:37.066Z,32.38
2022-11-16T06:13:40.213Z,29.30
2022-11-16T06:16:43.131Z,30.12
2022-11-16T06:19:46.004Z,27.98
2022-11-16T06:22:48.889Z,29.75
2022-11-16T06:25:55.481Z,27.87
2022-11-16T06:28:58.836Z,30.65
2022-11-16T06:32:01.246Z,29.55
2022-11-16T06:35:04.494Z,28.52
2022-11-16T06:38:09.004Z,29.85
2022-11-16T06:41:11.655Z,27.70
2022-11-16T06:44:14.593Z,28.95
2022-11-16T06:47:17.831Z,27.55
2022-11-16T06:50:20.864Z,34.30
2022-11-16T06:53:28.936Z,32.70
2022-11-16T06:56:34.964Z,32.42
2022-11-16T06:59:37.569Z,31.30
2022-11-16T07:02:40.521Z,32.38
2022-11-16T07:05:43.540Z,30.35
2022-11-16T07:08:46.197Z,33.70
2022-11-16T07:11:50.014Z,32.13
2022-11-16T07:14:53.229Z,32.22
2022-11-16T07:17:56.944Z,31.17
2022-11-16T07:21:14.936Z,31.47
2022-11-16T07:24:18.617Z,32.55
2022-11-16T07:27:22.347Z,31.98
2022-11-16T07:30:25.955Z,31.65
2022-11-16T07:33:29.445Z,31.20
2022-11-16T07:36:34.969Z,31.12
2022-11-16T07:39:37.654Z,33.47
2022-11-16T07:42:43.561Z,33.53
2022-11-16T07:45:48.395Z,30.90
2022-11-16T07:48:51.084Z,30.03
2022-11-16T07:51:55.782Z,31.35
2022-11-16T07:55:01.603Z,31.65
2022-11-16T07:58:04.970Z,30.65
2022-11-16T08:01:13.299Z,30.20
2022-11-16T08:04:17.537Z,36.03
2022-11-16T08:07:20.283Z,29.30
2022-11-16T08:10:23.841Z,32.85
2022-11-16T08:13:26.647Z,32.47
2022-11-16T08:16:29.374Z,32.90
2022-11-16T08:22:36.352Z,34.95
2022-11-16T08:25:39.183Z,32.20
2022-11-16T08:28:43.519Z,30.93
2022-11-16T08:31:46.280Z,33.33
2022-11-16T08:34:49.016Z,29.67
2022-11-16T08:37:51.533Z,33.53
2022-11-16T08:40:56.028Z,27.95
2022-11-16T08:44:00.145Z,29.83
2022-11-16T08:47:03.569Z,35.47
2022-11-16T08:50:06.577Z,32.65
2022-11-16T08:53:10.635Z,33.53
2022-11-16T08:56:13.637Z,31.50
2022-11-16T08:59:17.324Z,33.15
2022-11-16T09:02:25.312Z,32.10
2022-11-16T09:05:28.394Z,32.95
2022-11-16T09:08:31.551Z,29.70
2022-11-16T09:14:36.526Z,31.67
2022-11-16T09:17:39.160Z,34.03
2022-11-16T09:20:45.499Z,30.77
2022-11-16T09:23:48.884Z,31.02
2022-11-16T09:26:51.194Z,33.15
2022-11-16T09:29:53.742Z,31.03
2022-11-16T09:33:00.324Z,35.17
2022-11-16T09:36:08.583Z,34.05
2022-11-16T09:39:30.534Z,35.03
2022-11-16T09:42:54.000Z,32.95
2022-11-16T09:46:26.832Z,32.53
2022-11-16T09:49:43.748Z,31.17
2022-11-16T09:52:51.462Z,32.72
2022-11-16T09:56:08.727Z,30.25
2022-11-16T09:59:25.314Z,31.83
2022-11-16T10:02:34.526Z,33.38
2022-11-16T10:06:38.772Z,33.72
2022-11-16T10:09:41.801Z,30.50
2022-11-16T10:13:19.798Z,32.30
2022-11-16T10:16:44.786Z,27.60
2022-11-16T10:20:02.697Z,33.45
2022-11-16T10:23:53.800Z,29.50
2022-11-16T10:27:34.509Z,29.65
2022-11-16T10:30:46.522Z,31.62
2022-11-16T10:33:54.366Z,28.20
2022-11-16T10:37:07.697Z,27.90
2022-11-16T10:40:20.692Z,27.65
2022-11-16T10:43:30.151Z,32.53
2022-11-16T10:46:40.241Z,28.10
2022-11-16T10:50:11.861Z,30.62
2022-11-16T10:53:25.103Z,32.08
2022-11-16T10:56:37.206Z,29.98
2022-11-16T11:00:00.257Z,27.95
2022-11-16T11:03:03.143Z,28.27
2022-11-16T11:06:11.285Z,29.15
2022-11-16T11:09:27.474Z,28.23
2022-11-16T11:12:39.361Z,25.15
2022-11-16T11:15:42.846Z,29.12
2022-11-16T11:18:45.458Z,29.80
2022-11-16T11:21:48.764Z,27.85
2022-11-16T11:24:52.243Z,27.67
2022-11-16T11:28:28.850Z,27.05
2022-11-16T11:31:47.097Z,26.80
2022-11-16T11:34:53.215Z,27.08
2022-11-16T11:37:59.596Z,26.87
2022-11-16T11:41:06.737Z,32.22
2022-11-16T11:44:17.105Z,25.52
2022-11-16T11:51:13.414Z,30.58
2022-11-16T11:54:35.721Z,25.05
2022-11-16T11:57:42.513Z,29.83
2022-11-16T12:00:56.991Z,27.08
2022-11-16T12:04:18.399Z,26.30
2022-11-16T12:07:43.917Z,28.30
2022-11-16T12:10:52.842Z,27.62
2022-11-16T12:14:11.487Z,27.67
2022-11-16T12:17:26.724Z,25.65
2022-11-16T12:20:57.798Z,26.77
2022-11-16T12:24:20.829Z,25.77
2022-11-16T12:27:51.275Z,25.52
2022-11-16T12:31:19.604Z,26.10
2022-11-16T12:34:35.562Z,24.25
2022-11-16T12:37:41.137Z,23.23
2022-11-16T12:40:58.891Z,23.75
2022-11-16T12:44:08.683Z,23.55
2022-11-16T12:47:37.688Z,23.15
2022-11-16T12:50:57.656Z,22.73
2022-11-16T12:54:33.945Z,24.27
2022-11-16T12:58:14.394Z,23.80
2022-11-16T13:01:37.396Z,21.35
2022-11-16T13:04:57.544Z,21.33
2022-11-16T13:08:10.717Z,20.02
2022-11-16T13:11:25.285Z,21.33
2022-11-16T13:14:46.840Z,20.25
2022-11-16T13:17:57.766Z,21.58
2022-11-16T13:21:21.461Z,21.12
2022-11-16T13:27:38.119Z,24.52
2022-11-16T13:31:01.897Z,19.45
2022-11-16T13:34:15.725Z,23.27
2022-11-16T13:37:46.132Z,21.92
2022-11-16T13:40:48.553Z,21.77
2022-11-16T13:43:51.104Z,20.40
2022-11-16T13:47:05.808Z,19.00
2022-11-16T13:50:18.362Z,18.80
2022-11-16T13:54:42.670Z,19.05
2022-11-16T13:56:58.763Z,19.37
2022-11-16T14:00:00.997Z,17.65
2022-11-16T14:03:15.438Z,19.52
2022-11-16T14:06:24.045Z,17.35
2022-11-16T14:09:48.788Z,19.52
2022-11-16T14:12:53.501Z,16.75
2022-11-16T14:16:14.771Z,18.30
2022-11-16T14:19:49.094Z,16.75
2022-11-16T14:22:56.805Z,14.73
2022-11-16T14:26:12.853Z,16.42
2022-11-16T14:29:24.391Z,15.43
2022-11-16T14:32:33.173Z,15.18
2022-11-16T14:35:40.078Z,17.02
2022-11-16T14:38:43.561Z,14.00
2022-11-16T14:41:47.160Z,14.25
2022-11-16T14:44:50.414Z,13.80
2022-11-16T14:47:58.983Z,14.00
2022-11-16T14:51:13.413Z,12.63
2022-11-16T14:54:33.924Z,13.30
2022-11-16T14:57:36.479Z,14.30
2022-11-16T15:00:38.846Z,14.63
2022-11-16T15:03:54.977Z,14.20
2022-11-16T15:07:03.248Z,15.73
2022-11-16T15:10:14.756Z,14.48
2022-11-16T15:13:23.037Z,15.45
2022-11-16T15:16:26.086Z,13.88
2022-11-16T15:19:30.269Z,12.70
2022-11-16T15:22:40.490Z,17.87
2022-11-16T15:25:54.545Z,19.00
2022-11-16T15:28:57.302Z,17.10
2022-11-16T15:31:59.734Z,17.87
2022-11-16T15:35:05.364Z,16.42
2022-11-16T15:38:20.154Z,15.48
2022-11-16T15:41:24.595Z,15.82
2022-11-16T15:44:28.129Z,18.23
2022-11-16T15:50:33.156Z,14.82
2022-11-16T15:53:44.336Z,16.02
2022-11-16T15:56:47.431Z,15.18
2022-11-16T15:59:54.657Z,17.33
2022-11-16T16:03:05.586Z,15.23
2022-11-16T16:06:15.468Z,16.92
2022-11-16T16:09:22.745Z,16.92
2022-11-16T16:12:26.764Z,15.88
2022-11-16T16:15:33.975Z,14.18
2022-11-16T16:18:42.968Z,17.85
2022-11-16T16:21:46.833Z,16.00
2022-11-16T16:24:49.410Z,14.43
2022-11-16T16:27:51.857Z,13.18
2022-11-16T16:30:54.501Z,15.43
2022-11-16T16:33:56.925Z,14.35
2022-11-16T16:36:59.436Z,12.70
2022-11-16T16:40:02.061Z,13.68
2022-11-16T16:43:04.681Z,14.93
2022-11-16T16:46:07.114Z,14.60
